Terminal Aerodrome Forecast
Issued by NWS Duluth, MN

Home | Current Version | Previous Version | Text Only | Print | Product List | Glossary On
Versions: 1 2 3 4 5 6 7 8 9 10 11 12 13 14 15 16 17 18 19 20 21 22
298
FTUS43 KDLH 220014 AAA
TAFDLH
TAF AMD
KDLH 220014Z 2200/2224 17013KT 6SM BR OVC015
     FM220130 19009G16KT 6SM -SHRA BR VCTS OVC007CB
      TEMPO 2202/2204 5SM -TSRA BR OVC010CB
     FM220400 21008KT P6SM VCSH OVC015
     FM220600 26008KT P6SM OVC050
     FM221900 27011G19KT P6SM SCT200=

USA.gov is the U.S. government's official web portal to all federal, state and local government web resources and services.